sensor_id;sensor_type;location;lat;lon;timestamp;P1;durP1;ratioP1;P2;durP2;ratioP2
8757;SDS011;4415;42.152;24.744;2023-10-31T08:55:13;8.77;;;7.05;;
8757;SDS011;4415;42.152;24.744;2023-10-31T08:57:38;14.43;;;7.50;;
8757;SDS011;4415;42.152;24.744;2023-10-31T09:00:04;15.75;;;7.40;;
8757;SDS011;4415;42.152;24.744;2023-10-31T09:02:30;15.90;;;7.18;;
8757;SDS011;4415;42.152;24.744;2023-10-31T09:04:55;16.75;;;7.35;;
8757;SDS011;4415;42.152;24.744;2023-10-31T09:07:21;13.50;;;6.93;;
8757;SDS011;4415;42.152;24.744;2023-10-31T09:09:46;7.70;;;5.88;;
8757;SDS011;4415;42.152;24.744;2023-10-31T09:12:11;9.50;;;6.50;;
8757;SDS011;4415;42.152;24.744;2023-10-31T09:14:36;16.20;;;6.80;;
8757;SDS011;4415;42.152;24.744;2023-10-31T09:17:02;10.82;;;6.53;;
8757;SDS011;4415;42.152;24.744;2023-10-31T09:19:27;15.00;;;7.07;;
8757;SDS011;4415;42.152;24.744;2023-10-31T09:21:53;11.93;;;6.07;;
8757;SDS011;4415;42.152;24.744;2023-10-31T09:24:20;13.30;;;5.85;;
8757;SDS011;4415;42.152;24.744;2023-10-31T09:26:45;12.93;;;5.90;;
8757;SDS011;4415;42.152;24.744;2023-10-31T09:29:11;12.82;;;6.63;;
8757;SDS011;4415;42.152;24.744;2023-10-31T09:31:36;8.63;;;5.90;;
8757;SDS011;4415;42.152;24.744;2023-10-31T09:34:02;18.13;;;7.30;;
8757;SDS011;4415;42.152;24.744;2023-10-31T09:36:28;9.02;;;5.70;;
8757;SDS011;4415;42.152;24.744;2023-10-31T09:38:56;14.40;;;6.32;;
8757;SDS011;4415;42.152;24.744;2023-10-31T09:41:22;13.98;;;7.07;;
8757;SDS011;4415;42.152;24.744;2023-10-31T09:43:47;7.43;;;5.70;;
8757;SDS011;4415;42.152;24.744;2023-10-31T09:46:12;16.25;;;6.22;;
8757;SDS011;4415;42.152;24.744;2023-10-31T09:48:38;10.75;;;5.65;;
8757;SDS011;4415;42.152;24.744;2023-10-31T09:51:04;11.75;;;5.85;;
8757;SDS011;4415;42.152;24.744;2023-10-31T09:53:31;12.95;;;5.85;;
8757;SDS011;4415;42.152;24.744;2023-10-31T09:55:58;11.40;;;5.35;;
8757;SDS011;4415;42.152;24.744;2023-10-31T09:58:24;10.32;;;5.20;;
8757;SDS011;4415;42.152;24.744;2023-10-31T10:00:49;12.85;;;5.47;;
8757;SDS011;4415;42.152;24.744;2023-10-31T10:03:15;10.65;;;5.40;;
8757;SDS011;4415;42.152;24.744;2023-10-31T10:05:41;10.23;;;5.68;;
8757;SDS011;4415;42.152;24.744;2023-10-31T10:08:09;18.73;;;6.35;;
8757;SDS011;4415;42.152;24.744;2023-10-31T10:10:34;10.63;;;5.75;;
8757;SDS011;4415;42.152;24.744;2023-10-31T10:13:00;12.00;;;6.18;;
8757;SDS011;4415;42.152;24.744;2023-10-31T10:15:28;13.38;;;6.63;;
8757;SDS011;4415;42.152;24.744;2023-10-31T10:17:53;9.27;;;6.13;;
8757;SDS011;4415;42.152;24.744;2023-10-31T10:20:19;12.02;;;6.45;;
8757;SDS011;4415;42.152;24.744;2023-10-31T10:22:45;12.13;;;7.10;;
8757;SDS011;4415;42.152;24.744;2023-10-31T10:25:18;12.57;;;7.07;;
8757;SDS011;4415;42.152;24.744;2023-10-31T10:27:44;10.20;;;6.30;;
8757;SDS011;4415;42.152;24.744;2023-10-31T10:30:10;9.57;;;6.30;;
8757;SDS011;4415;42.152;24.744;2023-10-31T10:32:37;10.35;;;6.50;;
8757;SDS011;4415;42.152;24.744;2023-10-31T10:35:03;10.93;;;6.10;;
8757;SDS011;4415;42.152;24.744;2023-10-31T10:37:29;11.13;;;6.97;;
8757;SDS011;4415;42.152;24.744;2023-10-31T10:39:55;9.90;;;6.15;;
8757;SDS011;4415;42.152;24.744;2023-10-31T10:42:31;7.65;;;5.25;;
8757;SDS011;4415;42.152;24.744;2023-10-31T10:45:01;10.88;;;5.50;;
8757;SDS011;4415;42.152;24.744;2023-10-31T10:47:27;8.70;;;5.65;;
8757;SDS011;4415;42.152;24.744;2023-10-31T10:49:53;12.75;;;6.75;;
8757;SDS011;4415;42.152;24.744;2023-10-31T10:55:25;8.20;;;5.30;;
8757;SDS011;4415;42.152;24.744;2023-10-31T10:58:01;10.07;;;5.97;;
8757;SDS011;4415;42.152;24.744;2023-10-31T11:00:30;12.70;;;5.28;;
8757;SDS011;4415;42.152;24.744;2023-10-31T11:02:56;6.97;;;5.72;;
8757;SDS011;4415;42.152;24.744;2023-10-31T11:05:25;10.57;;;5.50;;
8757;SDS011;4415;42.152;24.744;2023-10-31T11:07:51;7.82;;;4.95;;
8757;SDS011;4415;42.152;24.744;2023-10-31T11:10:17;8.63;;;5.45;;
8757;SDS011;4415;42.152;24.744;2023-10-31T11:12:43;8.82;;;5.05;;
8757;SDS011;4415;42.152;24.744;2023-10-31T11:15:09;10.05;;;5.60;;
8757;SDS011;4415;42.152;24.744;2023-10-31T11:17:39;8.02;;;4.65;;
8757;SDS011;4415;42.152;24.744;2023-10-31T11:20:05;9.13;;;5.15;;
8757;SDS011;4415;42.152;24.744;2023-10-31T11:22:41;8.98;;;4.70;;
8757;SDS011;4415;42.152;24.744;2023-10-31T11:25:15;7.00;;;4.65;;
8757;SDS011;4415;42.152;24.744;2023-10-31T11:27:45;7.32;;;5.05;;
8757;SDS011;4415;42.152;24.744;2023-10-31T11:32:53;8.07;;;4.97;;
8757;SDS011;4415;42.152;24.744;2023-10-31T11:35:19;8.65;;;5.45;;
8757;SDS011;4415;42.152;24.744;2023-10-31T11:37:49;9.43;;;4.97;;
8757;SDS011;4415;42.152;24.744;2023-10-31T11:40:25;11.18;;;5.00;;
8757;SDS011;4415;42.152;24.744;2023-10-31T11:42:52;9.95;;;5.10;;
8757;SDS011;4415;42.152;24.744;2023-10-31T11:45:28;9.15;;;4.88;;
8757;SDS011;4415;42.152;24.744;2023-10-31T11:48:02;8.60;;;4.75;;
8757;SDS011;4415;42.152;24.744;2023-10-31T11:50:29;7.60;;;4.40;;
8757;SDS011;4415;42.152;24.744;2023-10-31T11:55:25;6.40;;;4.82;;
8757;SDS011;4415;42.152;24.744;2023-10-31T11:57:50;9.30;;;4.60;;
8757;SDS011;4415;42.152;24.744;2023-10-31T12:00:22;8.05;;;4.25;;
8757;SDS011;4415;42.152;24.744;2023-10-31T12:02:58;8.80;;;4.50;;
8757;SDS011;4415;42.152;24.744;2023-10-31T12:05:27;7.22;;;4.50;;
8757;SDS011;4415;42.152;24.744;2023-10-31T12:07:53;9.10;;;4.85;;
8757;SDS011;4415;42.152;24.744;2023-10-31T12:10:23;9.77;;;4.90;;
8757;SDS011;4415;42.152;24.744;2023-10-31T12:12:54;7.38;;;5.00;;
8757;SDS011;4415;42.152;24.744;2023-10-31T12:15:20;6.78;;;5.07;;
8757;SDS011;4415;42.152;24.744;2023-10-31T12:17:46;9.43;;;5.50;;
8757;SDS011;4415;42.152;24.744;2023-10-31T12:20:11;7.35;;;6.05;;
8757;SDS011;4415;42.152;24.744;2023-10-31T12:22:37;11.63;;;6.50;;
8757;SDS011;4415;42.152;24.744;2023-10-31T12:25:03;7.28;;;6.57;;
8757;SDS011;4415;42.152;24.744;2023-10-31T12:27:45;11.20;;;6.97;;
8757;SDS011;4415;42.152;24.744;2023-10-31T12:30:21;10.93;;;7.80;;
8757;SDS011;4415;42.152;24.744;2023-10-31T12:32:53;10.68;;;7.57;;
8757;SDS011;4415;42.152;24.744;2023-10-31T12:35:23;10.05;;;7.88;;
8757;SDS011;4415;42.152;24.744;2023-10-31T12:37:48;15.18;;;9.27;;
8757;SDS011;4415;42.152;24.744;2023-10-31T12:40:18;13.73;;;9.57;;
8757;SDS011;4415;42.152;24.744;2023-10-31T12:42:45;12.43;;;7.65;;
8757;SDS011;4415;42.152;24.744;2023-10-31T12:45:12;10.77;;;8.75;;
8757;SDS011;4415;42.152;24.744;2023-10-31T12:47:38;13.93;;;10.32;;
8757;SDS011;4415;42.152;24.744;2023-10-31T12:50:07;16.27;;;10.75;;
8757;SDS011;4415;42.152;24.744;2023-10-31T12:52:47;12.55;;;11.13;;
8757;SDS011;4415;42.152;24.744;2023-10-31T12:55:13;21.55;;;12.10;;
8757;SDS011;4415;42.152;24.744;2023-10-31T12:57:47;15.25;;;12.13;;
8757;SDS011;4415;42.152;24.744;2023-10-31T13:00:16;17.98;;;12.23;;
8757;SDS011;4415;42.152;24.744;2023-10-31T13:02:50;13.52;;;9.88;;
8757;SDS011;4415;42.152;24.744;2023-10-31T13:05:17;12.13;;;7.82;;
8757;SDS011;4415;42.152;24.744;2023-10-31T13:07:51;8.00;;;6.93;;
8757;SDS011;4415;42.152;24.744;2023-10-31T13:10:18;8.95;;;7.75;;
8757;SDS011;4415;42.152;24.744;2023-10-31T13:12:44;12.57;;;7.18;;
8757;SDS011;4415;42.152;24.744;2023-10-31T13:15:10;7.20;;;6.03;;
8757;SDS011;4415;42.152;24.744;2023-10-31T13:17:36;7.03;;;6.32;;
8757;SDS011;4415;42.152;24.744;2023-10-31T13:20:03;7.75;;;6.68;;
8757;SDS011;4415;42.152;24.744;2023-10-31T13:22:31;10.07;;;7.22;;
8757;SDS011;4415;42.152;24.744;2023-10-31T13:24:56;8.52;;;7.40;;
8757;SDS011;4415;42.152;24.744;2023-10-31T13:27:21;13.27;;;8.10;;
8757;SDS011;4415;42.152;24.744;2023-10-31T13:29:47;14.52;;;9.95;;
8757;SDS011;4415;42.152;24.744;2023-10-31T13:32:14;17.38;;;9.80;;
8757;SDS011;4415;42.152;24.744;2023-10-31T13:34:41;16.77;;;10.60;;
8757;SDS011;4415;42.152;24.744;2023-10-31T13:37:06;14.10;;;10.07;;
8757;SDS011;4415;42.152;24.744;2023-10-31T13:39:33;15.82;;;8.80;;
8757;SDS011;4415;42.152;24.744;2023-10-31T13:41:59;12.65;;;7.93;;
8757;SDS011;4415;42.152;24.744;2023-10-31T13:44:24;11.25;;;7.63;;
8757;SDS011;4415;42.152;24.744;2023-10-31T13:46:49;14.82;;;7.75;;
8757;SDS011;4415;42.152;24.744;2023-10-31T13:49:15;14.27;;;7.95;;
8757;SDS011;4415;42.152;24.744;2023-10-31T13:51:40;11.05;;;6.60;;
8757;SDS011;4415;42.152;24.744;2023-10-31T13:54:07;12.98;;;7.53;;
8757;SDS011;4415;42.152;24.744;2023-10-31T13:56:32;9.85;;;6.28;;
8757;SDS011;4415;42.152;24.744;2023-10-31T13:58:58;7.93;;;6.38;;
8757;SDS011;4415;42.152;24.744;2023-10-31T14:01:23;8.20;;;6.10;;
8757;SDS011;4415;42.152;24.744;2023-10-31T14:03:50;9.60;;;5.95;;
8757;SDS011;4415;42.152;24.744;2023-10-31T14:06:16;10.57;;;6.88;;
8757;SDS011;4415;42.152;24.744;2023-10-31T14:08:42;7.87;;;5.70;;
8757;SDS011;4415;42.152;24.744;2023-10-31T14:11:08;9.70;;;7.65;;
8757;SDS011;4415;42.152;24.744;2023-10-31T14:13:35;10.82;;;6.63;;
8757;SDS011;4415;42.152;24.744;2023-10-31T14:16:01;11.73;;;7.65;;
8757;SDS011;4415;42.152;24.744;2023-10-31T14:18:27;9.13;;;8.13;;
8757;SDS011;4415;42.152;24.744;2023-10-31T14:20:53;12.98;;;6.80;;
8757;SDS011;4415;42.152;24.744;2023-10-31T14:23:18;12.32;;;6.50;;
8757;SDS011;4415;42.152;24.744;2023-10-31T14:25:44;12.38;;;6.25;;
8757;SDS011;4415;42.152;24.744;2023-10-31T14:28:09;10.02;;;6.50;;
8757;SDS011;4415;42.152;24.744;2023-10-31T14:30:35;17.88;;;7.68;;
8757;SDS011;4415;42.152;24.744;2023-10-31T14:33:00;15.27;;;7.35;;
8757;SDS011;4415;42.152;24.744;2023-10-31T14:35:25;10.98;;;7.07;;
8757;SDS011;4415;42.152;24.744;2023-10-31T14:37:50;10.63;;;7.07;;
8757;SDS011;4415;42.152;24.744;2023-10-31T14:40:16;11.60;;;6.57;;
8757;SDS011;4415;42.152;24.744;2023-10-31T14:42:41;9.82;;;6.47;;
8757;SDS011;4415;42.152;24.744;2023-10-31T14:45:07;10.02;;;6.65;;
8757;SDS011;4415;42.152;24.744;2023-10-31T14:47:32;18.05;;;8.30;;
8757;SDS011;4415;42.152;24.744;2023-10-31T14:49:58;12.73;;;8.13;;
8757;SDS011;4415;42.152;24.744;2023-10-31T14:52:23;14.80;;;7.35;;
8757;SDS011;4415;42.152;24.744;2023-10-31T14:54:48;14.27;;;6.95;;
8757;SDS011;4415;42.152;24.744;2023-10-31T14:57:14;11.27;;;7.22;;
8757;SDS011;4415;42.152;24.744;2023-10-31T14:59:40;13.55;;;6.50;;
8757;SDS011;4415;42.152;24.744;2023-10-31T15:02:06;12.32;;;7.20;;
8757;SDS011;4415;42.152;24.744;2023-10-31T15:04:31;13.52;;;8.50;;
8757;SDS011;4415;42.152;24.744;2023-10-31T15:06:57;18.13;;;7.60;;
8757;SDS011;4415;42.152;24.744;2023-10-31T15:09:22;12.45;;;7.13;;
8757;SDS011;4415;42.152;24.744;2023-10-31T15:11:48;9.52;;;7.30;;
8757;SDS011;4415;42.152;24.744;2023-10-31T15:14:13;11.27;;;7.23;;
8757;SDS011;4415;42.152;24.744;2023-10-31T15:16:38;12.70;;;8.53;;
8757;SDS011;4415;42.152;24.744;2023-10-31T15:19:04;16.03;;;8.10;;
8757;SDS011;4415;42.152;24.744;2023-10-31T15:21:29;10.47;;;7.07;;
8757;SDS011;4415;42.152;24.744;2023-10-31T15:23:55;13.63;;;8.50;;
8757;SDS011;4415;42.152;24.744;2023-10-31T15:26:21;14.73;;;7.67;;
8757;SDS011;4415;42.152;24.744;2023-10-31T15:28:49;17.00;;;8.40;;
8757;SDS011;4415;42.152;24.744;2023-10-31T15:31:15;13.17;;;7.77;;
8757;SDS011;4415;42.152;24.744;2023-10-31T15:33:41;17.27;;;8.80;;
8757;SDS011;4415;42.152;24.744;2023-10-31T15:36:11;15.00;;;8.50;;
8757;SDS011;4415;42.152;24.744;2023-10-31T15:38:40;15.27;;;8.67;;
8757;SDS011;4415;42.152;24.744;2023-10-31T15:41:05;15.87;;;9.77;;
8757;SDS011;4415;42.152;24.744;2023-10-31T15:43:31;18.05;;;11.45;;
8757;SDS011;4415;42.152;24.744;2023-10-31T15:45:56;19.07;;;13.80;;
8757;SDS011;4415;42.152;24.744;2023-10-31T15:48:21;23.50;;;12.40;;
8757;SDS011;4415;42.152;24.744;2023-10-31T15:50:47;16.43;;;11.50;;
8757;SDS011;4415;42.152;24.744;2023-10-31T15:53:12;17.80;;;10.63;;
8757;SDS011;4415;42.152;24.744;2023-10-31T15:55:37;16.07;;;10.20;;
8757;SDS011;4415;42.152;24.744;2023-10-31T15:58:03;21.27;;;11.03;;
8757;SDS011;4415;42.152;24.744;2023-10-31T16:00:29;16.93;;;11.10;;
8757;SDS011;4415;42.152;24.744;2023-10-31T16:02:54;16.52;;;10.43;;
8757;SDS011;4415;42.152;24.744;2023-10-31T16:05:20;17.67;;;10.93;;
8757;SDS011;4415;42.152;24.744;2023-10-31T16:07:47;21.25;;;11.25;;
8757;SDS011;4415;42.152;24.744;2023-10-31T16:10:12;19.90;;;12.40;;
8757;SDS011;4415;42.152;24.744;2023-10-31T16:12:38;22.27;;;11.30;;
8757;SDS011;4415;42.152;24.744;2023-10-31T16:15:04;19.98;;;12.57;;
8757;SDS011;4415;42.152;24.744;2023-10-31T16:17:29;16.17;;;11.05;;
8757;SDS011;4415;42.152;24.744;2023-10-31T16:19:54;35.10;;;14.13;;
8757;SDS011;4415;42.152;24.744;2023-10-31T16:22:21;22.10;;;14.17;;
8757;SDS011;4415;42.152;24.744;2023-10-31T16:24:47;32.77;;;13.93;;
8757;SDS011;4415;42.152;24.744;2023-10-31T16:27:13;28.50;;;15.03;;
8757;SDS011;4415;42.152;24.744;2023-10-31T16:29:40;26.00;;;13.77;;
8757;SDS011;4415;42.152;24.744;2023-10-31T16:32:05;21.40;;;12.75;;
8757;SDS011;4415;42.152;24.744;2023-10-31T16:34:31;25.30;;;12.43;;
8757;SDS011;4415;42.152;24.744;2023-10-31T16:36:56;25.97;;;11.53;;
8757;SDS011;4415;42.152;24.744;2023-10-31T16:39:23;18.97;;;10.50;;
8757;SDS011;4415;42.152;24.744;2023-10-31T16:41:49;21.83;;;10.07;;
8757;SDS011;4415;42.152;24.744;2023-10-31T16:44:14;22.63;;;10.93;;
8757;SDS011;4415;42.152;24.744;2023-10-31T16:46:43;24.87;;;11.03;;
8757;SDS011;4415;42.152;24.744;2023-10-31T16:49:10;26.20;;;11.13;;
8757;SDS011;4415;42.152;24.744;2023-10-31T16:51:35;21.83;;;11.60;;
8757;SDS011;4415;42.152;24.744;2023-10-31T16:54:00;21.63;;;10.10;;
8757;SDS011;4415;42.152;24.744;2023-10-31T16:56:26;20.80;;;10.63;;
8757;SDS011;4415;42.152;24.744;2023-10-31T16:58:52;22.83;;;10.87;;
8757;SDS011;4415;42.152;24.744;2023-10-31T17:01:17;22.03;;;10.47;;
8757;SDS011;4415;42.152;24.744;2023-10-31T17:03:42;18.80;;;9.30;;
8757;SDS011;4415;42.152;24.744;2023-10-31T17:06:08;18.23;;;9.60;;
8757;SDS011;4415;42.152;24.744;2023-10-31T17:08:33;15.90;;;9.13;;
8757;SDS011;4415;42.152;24.744;2023-10-31T17:11:00;27.03;;;10.13;;
8757;SDS011;4415;42.152;24.744;2023-10-31T17:13:26;14.93;;;8.80;;
8757;SDS011;4415;42.152;24.744;2023-10-31T17:15:51;18.40;;;8.53;;
8757;SDS011;4415;42.152;24.744;2023-10-31T17:18:17;15.13;;;8.33;;
8757;SDS011;4415;42.152;24.744;2023-10-31T17:20:42;14.07;;;7.80;;
8757;SDS011;4415;42.152;24.744;2023-10-31T17:23:09;14.03;;;7.63;;
8757;SDS011;4415;42.152;24.744;2023-10-31T17:25:35;14.80;;;7.67;;
8757;SDS011;4415;42.152;24.744;2023-10-31T17:28:00;23.43;;;8.23;;
8757;SDS011;4415;42.152;24.744;2023-10-31T17:30:25;14.50;;;8.37;;
8757;SDS011;4415;42.152;24.744;2023-10-31T17:32:51;13.77;;;9.37;;
8757;SDS011;4415;42.152;24.744;2023-10-31T17:35:18;19.40;;;10.23;;
8757;SDS011;4415;42.152;24.744;2023-10-31T17:37:43;25.40;;;11.50;;
8757;SDS011;4415;42.152;24.744;2023-10-31T17:40:08;16.07;;;9.73;;
8757;SDS011;4415;42.152;24.744;2023-10-31T17:42:36;19.67;;;10.43;;
8757;SDS011;4415;42.152;24.744;2023-10-31T17:45:02;20.27;;;10.60;;
8757;SDS011;4415;42.152;24.744;2023-10-31T17:47:27;20.33;;;9.97;;
8757;SDS011;4415;42.152;24.744;2023-10-31T17:49:52;19.67;;;9.90;;
8757;SDS011;4415;42.152;24.744;2023-10-31T17:52:18;23.30;;;10.70;;
8757;SDS011;4415;42.152;24.744;2023-10-31T17:54:43;20.97;;;10.00;;
8757;SDS011;4415;42.152;24.744;2023-10-31T17:57:09;22.37;;;11.10;;
8757;SDS011;4415;42.152;24.744;2023-10-31T17:59:35;17.60;;;10.90;;
8757;SDS011;4415;42.152;24.744;2023-10-31T18:02:00;19.47;;;11.50;;
8757;SDS011;4415;42.152;24.744;2023-10-31T18:04:25;25.17;;;12.87;;
8757;SDS011;4415;42.152;24.744;2023-10-31T18:06:51;24.37;;;14.83;;
8757;SDS011;4415;42.152;24.744;2023-10-31T18:09:17;26.27;;;14.67;;
8757;SDS011;4415;42.152;24.744;2023-10-31T18:11:42;23.93;;;15.83;;
8757;SDS011;4415;42.152;24.744;2023-10-31T18:14:08;34.77;;;18.37;;
8757;SDS011;4415;42.152;24.744;2023-10-31T18:16:34;34.63;;;20.27;;
8757;SDS011;4415;42.152;24.744;2023-10-31T18:19:00;39.23;;;20.23;;
8757;SDS011;4415;42.152;24.744;2023-10-31T18:21:25;33.03;;;20.67;;
8757;SDS011;4415;42.152;24.744;2023-10-31T18:23:53;38.07;;;22.37;;
8757;SDS011;4415;42.152;24.744;2023-10-31T18:26:18;36.30;;;22.70;;
8757;SDS011;4415;42.152;24.744;2023-10-31T18:28:44;34.67;;;22.53;;
8757;SDS011;4415;42.152;24.744;2023-10-31T18:31:09;40.23;;;23.17;;
8757;SDS011;4415;42.152;24.744;2023-10-31T18:33:35;40.13;;;24.87;;
8757;SDS011;4415;42.152;24.744;2023-10-31T18:36:01;37.77;;;23.47;;
8757;SDS011;4415;42.152;24.744;2023-10-31T18:38:27;42.20;;;23.97;;
8757;SDS011;4415;42.152;24.744;2023-10-31T18:40:53;37.27;;;23.57;;
8757;SDS011;4415;42.152;24.744;2023-10-31T18:43:18;48.17;;;24.20;;
8757;SDS011;4415;42.152;24.744;2023-10-31T18:45:43;38.87;;;22.93;;
8757;SDS011;4415;42.152;24.744;2023-10-31T18:48:09;39.80;;;22.53;;
8757;SDS011;4415;42.152;24.744;2023-10-31T18:50:35;41.20;;;23.07;;
8757;SDS011;4415;42.152;24.744;2023-10-31T18:53:00;43.37;;;24.17;;
8757;SDS011;4415;42.152;24.744;2023-10-31T18:55:26;42.43;;;24.07;;
8757;SDS011;4415;42.152;24.744;2023-10-31T18:57:51;36.60;;;23.27;;
8757;SDS011;4415;42.152;24.744;2023-10-31T19:00:17;35.10;;;22.43;;
8757;SDS011;4415;42.152;24.744;2023-10-31T19:02:42;38.33;;;22.53;;
8757;SDS011;4415;42.152;24.744;2023-10-31T19:05:08;40.53;;;22.37;;
8757;SDS011;4415;42.152;24.744;2023-10-31T19:07:33;35.17;;;22.60;;
8757;SDS011;4415;42.152;24.744;2023-10-31T19:09:59;33.73;;;22.03;;
8757;SDS011;4415;42.152;24.744;2023-10-31T19:12:24;34.57;;;21.60;;
8757;SDS011;4415;42.152;24.744;2023-10-31T19:14:49;38.17;;;20.60;;
8757;SDS011;4415;42.152;24.744;2023-10-31T19:17:15;43.03;;;27.27;;
8757;SDS011;4415;42.152;24.744;2023-10-31T19:19:40;36.60;;;22.93;;
8757;SDS011;4415;42.152;24.744;2023-10-31T19:22:07;30.13;;;20.63;;
8757;SDS011;4415;42.152;24.744;2023-10-31T19:24:32;39.57;;;22.13;;
8757;SDS011;4415;42.152;24.744;2023-10-31T19:26:58;34.77;;;21.87;;
8757;SDS011;4415;42.152;24.744;2023-10-31T19:29:23;35.50;;;21.20;;
8757;SDS011;4415;42.152;24.744;2023-10-31T19:31:48;33.67;;;20.87;;
8757;SDS011;4415;42.152;24.744;2023-10-31T19:34:13;38.37;;;21.97;;
8757;SDS011;4415;42.152;24.744;2023-10-31T19:36:39;37.30;;;21.47;;
8757;SDS011;4415;42.152;24.744;2023-10-31T19:39:04;48.03;;;21.87;;
8757;SDS011;4415;42.152;24.744;2023-10-31T19:41:30;44.80;;;22.63;;
8757;SDS011;4415;42.152;24.744;2023-10-31T19:43:56;35.73;;;22.50;;
8757;SDS011;4415;42.152;24.744;2023-10-31T19:46:21;35.37;;;21.57;;
8757;SDS011;4415;42.152;24.744;2023-10-31T19:48:47;38.57;;;23.57;;
8757;SDS011;4415;42.152;24.744;2023-10-31T19:51:12;39.90;;;23.07;;
8757;SDS011;4415;42.152;24.744;2023-10-31T19:53:38;39.03;;;24.23;;
8757;SDS011;4415;42.152;24.744;2023-10-31T19:56:04;42.07;;;24.20;;
8757;SDS011;4415;42.152;24.744;2023-10-31T19:58:30;38.80;;;23.23;;
8757;SDS011;4415;42.152;24.744;2023-10-31T20:00:55;39.57;;;23.70;;
8757;SDS011;4415;42.152;24.744;2023-10-31T20:03:20;36.03;;;21.03;;
8757;SDS011;4415;42.152;24.744;2023-10-31T20:05:47;37.53;;;21.43;;
8757;SDS011;4415;42.152;24.744;2023-10-31T20:08:13;30.27;;;20.20;;
8757;SDS011;4415;42.152;24.744;2023-10-31T20:10:38;39.00;;;20.03;;
8757;SDS011;4415;42.152;24.744;2023-10-31T20:13:05;33.60;;;21.50;;
8757;SDS011;4415;42.152;24.744;2023-10-31T20:15:30;31.17;;;20.43;;
8757;SDS011;4415;42.152;24.744;2023-10-31T20:17:56;39.13;;;21.13;;
8757;SDS011;4415;42.152;24.744;2023-10-31T20:20:21;42.53;;;20.23;;
8757;SDS011;4415;42.152;24.744;2023-10-31T20:22:46;42.17;;;20.40;;
8757;SDS011;4415;42.152;24.744;2023-10-31T20:25:12;32.60;;;20.37;;
8757;SDS011;4415;42.152;24.744;2023-10-31T20:27:38;31.80;;;21.07;;
8757;SDS011;4415;42.152;24.744;2023-10-31T20:30:04;30.53;;;19.63;;
8757;SDS011;4415;42.152;24.744;2023-10-31T20:32:30;32.40;;;19.93;;
8757;SDS011;4415;42.152;24.744;2023-10-31T20:34:58;31.97;;;19.47;;
8757;SDS011;4415;42.152;24.744;2023-10-31T20:37:23;29.20;;;18.20;;
8757;SDS011;4415;42.152;24.744;2023-10-31T20:39:48;33.47;;;19.57;;
8757;SDS011;4415;42.152;24.744;2023-10-31T20:42:14;35.63;;;19.27;;
8757;SDS011;4415;42.152;24.744;2023-10-31T20:44:39;32.77;;;19.20;;
8757;SDS011;4415;42.152;24.744;2023-10-31T20:47:04;32.70;;;20.33;;
8757;SDS011;4415;42.152;24.744;2023-10-31T20:49:30;35.97;;;20.57;;
8757;SDS011;4415;42.152;24.744;2023-10-31T20:51:55;32.17;;;20.73;;
8757;SDS011;4415;42.152;24.744;2023-10-31T20:54:20;40.30;;;20.10;;
8757;SDS011;4415;42.152;24.744;2023-10-31T20:56:46;26.57;;;17.50;;
8757;SDS011;4415;42.152;24.744;2023-10-31T20:59:11;30.67;;;17.10;;
8757;SDS011;4415;42.152;24.744;2023-10-31T21:01:36;32.93;;;17.10;;
8757;SDS011;4415;42.152;24.744;2023-10-31T21:04:02;36.07;;;16.00;;
8757;SDS011;4415;42.152;24.744;2023-10-31T21:06:28;33.93;;;16.00;;
8757;SDS011;4415;42.152;24.744;2023-10-31T21:08:53;36.20;;;16.77;;
8757;SDS011;4415;42.152;24.744;2023-10-31T21:11:19;35.33;;;16.97;;
8757;SDS011;4415;42.152;24.744;2023-10-31T21:13:44;41.07;;;17.33;;
8757;SDS011;4415;42.152;24.744;2023-10-31T21:16:10;37.90;;;16.70;;
8757;SDS011;4415;42.152;24.744;2023-10-31T21:18:35;32.47;;;17.27;;
8757;SDS011;4415;42.152;24.744;2023-10-31T21:21:00;57.33;;;17.80;;
8757;SDS011;4415;42.152;24.744;2023-10-31T21:23:26;36.43;;;17.03;;
8757;SDS011;4415;42.152;24.744;2023-10-31T21:25:51;34.40;;;16.03;;
8757;SDS011;4415;42.152;24.744;2023-10-31T21:28:19;39.90;;;16.37;;
8757;SDS011;4415;42.152;24.744;2023-10-31T21:30:44;34.47;;;15.87;;
8757;SDS011;4415;42.152;24.744;2023-10-31T21:33:11;38.47;;;16.33;;
8757;SDS011;4415;42.152;24.744;2023-10-31T21:35:36;39.77;;;16.60;;
8757;SDS011;4415;42.152;24.744;2023-10-31T21:38:02;30.77;;;15.80;;
8757;SDS011;4415;42.152;24.744;2023-10-31T21:40:27;28.67;;;15.67;;
8757;SDS011;4415;42.152;24.744;2023-10-31T21:42:52;27.17;;;15.90;;
8757;SDS011;4415;42.152;24.744;2023-10-31T21:45:18;41.43;;;15.90;;
8757;SDS011;4415;42.152;24.744;2023-10-31T21:47:43;34.67;;;15.87;;
8757;SDS011;4415;42.152;24.744;2023-10-31T21:50:09;35.53;;;16.03;;
8757;SDS011;4415;42.152;24.744;2023-10-31T21:52:34;38.43;;;15.73;;
8757;SDS011;4415;42.152;24.744;2023-10-31T21:55:00;30.33;;;16.27;;
8757;SDS011;4415;42.152;24.744;2023-10-31T21:57:25;30.13;;;15.50;;
8757;SDS011;4415;42.152;24.744;2023-10-31T21:59:50;34.30;;;16.20;;
8757;SDS011;4415;42.152;24.744;2023-10-31T22:02:15;30.47;;;16.70;;
8757;SDS011;4415;42.152;24.744;2023-10-31T22:04:42;33.37;;;16.07;;
8757;SDS011;4415;42.152;24.744;2023-10-31T22:07:09;28.97;;;16.33;;
8757;SDS011;4415;42.152;24.744;2023-10-31T22:09:34;34.93;;;15.77;;
8757;SDS011;4415;42.152;24.744;2023-10-31T22:11:59;34.80;;;15.47;;
8757;SDS011;4415;42.152;24.744;2023-10-31T22:14:25;30.23;;;15.90;;
8757;SDS011;4415;42.152;24.744;2023-10-31T22:16:50;29.53;;;14.93;;
8757;SDS011;4415;42.152;24.744;2023-10-31T22:19:15;38.53;;;15.60;;
8757;SDS011;4415;42.152;24.744;2023-10-31T22:21:41;31.83;;;14.77;;
8757;SDS011;4415;42.152;24.744;2023-10-31T22:24:06;30.13;;;16.27;;
8757;SDS011;4415;42.152;24.744;2023-10-31T22:26:32;27.67;;;16.00;;
8757;SDS011;4415;42.152;24.744;2023-10-31T22:28:57;26.77;;;15.50;;
8757;SDS011;4415;42.152;24.744;2023-10-31T22:31:23;28.30;;;15.57;;
8757;SDS011;4415;42.152;24.744;2023-10-31T22:33:48;27.03;;;15.10;;
8757;SDS011;4415;42.152;24.744;2023-10-31T22:36:13;25.77;;;14.87;;
8757;SDS011;4415;42.152;24.744;2023-10-31T22:38:39;21.57;;;14.47;;
8757;SDS011;4415;42.152;24.744;2023-10-31T22:41:05;24.60;;;14.93;;
8757;SDS011;4415;42.152;24.744;2023-10-31T22:43:30;26.70;;;14.97;;
8757;SDS011;4415;42.152;24.744;2023-10-31T22:45:56;25.43;;;14.53;;
8757;SDS011;4415;42.152;24.744;2023-10-31T22:48:21;25.50;;;14.33;;
8757;SDS011;4415;42.152;24.744;2023-10-31T22:50:47;24.87;;;14.20;;
8757;SDS011;4415;42.152;24.744;2023-10-31T22:53:12;25.87;;;14.37;;
8757;SDS011;4415;42.152;24.744;2023-10-31T22:55:38;27.27;;;14.83;;
8757;SDS011;4415;42.152;24.744;2023-10-31T22:58:03;24.83;;;14.83;;
8757;SDS011;4415;42.152;24.744;2023-10-31T23:00:29;28.60;;;14.70;;
8757;SDS011;4415;42.152;24.744;2023-10-31T23:02:58;22.70;;;14.80;;
8757;SDS011;4415;42.152;24.744;2023-10-31T23:05:23;20.90;;;14.07;;
8757;SDS011;4415;42.152;24.744;2023-10-31T23:07:49;19.03;;;14.30;;
8757;SDS011;4415;42.152;24.744;2023-10-31T23:10:17;27.17;;;15.83;;
8757;SDS011;4415;42.152;24.744;2023-10-31T23:12:44;29.93;;;14.97;;
8757;SDS011;4415;42.152;24.744;2023-10-31T23:15:09;25.87;;;15.10;;
8757;SDS011;4415;42.152;24.744;2023-10-31T23:17:42;31.33;;;15.33;;
8757;SDS011;4415;42.152;24.744;2023-10-31T23:20:08;25.80;;;14.33;;
8757;SDS011;4415;42.152;24.744;2023-10-31T23:22:35;23.50;;;14.20;;
8757;SDS011;4415;42.152;24.744;2023-10-31T23:25:02;22.37;;;14.60;;
8757;SDS011;4415;42.152;24.744;2023-10-31T23:27:29;23.00;;;14.13;;
8757;SDS011;4415;42.152;24.744;2023-10-31T23:29:55;24.67;;;15.13;;
8757;SDS011;4415;42.152;24.744;2023-10-31T23:32:21;25.00;;;15.60;;
8757;SDS011;4415;42.152;24.744;2023-10-31T23:34:47;21.80;;;14.27;;
8757;SDS011;4415;42.152;24.744;2023-10-31T23:37:12;26.80;;;15.00;;
8757;SDS011;4415;42.152;24.744;2023-10-31T23:39:37;27.10;;;15.10;;